Time;durP1;ratioP1;P1;durP2;ratioP2;P2;SDS_P1;SDS_P2;PMS_P1;PMS_P2;Temp;Humidity;BMP_temperature;BMP_pressure;BME280_temperature;BME280_humidity;BME280_pressure;Samples;Min_cycle;Max_cycle;Signal;HPM_P1;HPM_P2
2022/08/16 00:00:44;;;;;;;23.93;19.07;;;;;;;23.01;56.33;100585.31;5204256;28;20466;-51
2022/08/16 00:03:18;;;;;;;21.92;18.00;;;;;;;23.00;56.25;100586.34;5203899;28;20943;-49
2022/08/16 00:05:50;;;;;;;26.35;19.75;;;;;;;22.99;56.44;100582.03;5207229;28;20465;-52
2022/08/16 00:08:23;;;;;;;24.55;18.58;;;;;;;22.97;56.53;100581.44;5206237;28;20861;-56
2022/08/16 00:10:55;;;;;;;29.38;19.35;;;;;;;22.97;56.41;100588.72;5209293;28;20430;-53
2022/08/16 00:13:28;;;;;;;26.58;20.88;;;;;;;22.95;56.40;100591.66;5209678;28;20430;-53
2022/08/16 00:16:02;;;;;;;24.10;18.80;;;;;;;22.96;56.45;100597.84;5209230;28;20418;-49
2022/08/16 00:18:34;;;;;;;24.83;19.50;;;;;;;22.94;56.55;100592.69;5200155;28;20915;-52
2022/08/16 00:21:06;;;;;;;28.33;19.92;;;;;;;22.93;56.42;100593.72;5208110;28;20473;-45
2022/08/16 00:23:39;;;;;;;24.40;20.33;;;;;;;22.93;56.51;100599.09;5206368;28;20709;-52
2022/08/16 00:26:11;;;;;;;26.73;21.00;;;;;;;22.95;56.38;100596.22;5204281;28;20901;-52
2022/08/16 00:28:43;;;;;;;26.48;20.48;;;;;;;22.93;56.59;100601.81;5209586;28;20418;-54
2022/08/16 00:31:17;;;;;;;25.80;20.33;;;;;;;22.94;56.54;100605.34;5209144;28;20413;-54
2022/08/16 00:33:49;;;;;;;24.63;19.90;;;;;;;22.89;56.63;100606.03;5208163;28;20460;-54
2022/08/16 00:36:22;;;;;;;23.17;17.73;;;;;;;22.87;56.71;100600.06;5209183;28;20415;-53
2022/08/16 00:38:54;;;;;;;22.98;17.10;;;;;;;22.85;56.83;100607.53;5209651;28;20444;-49
2022/08/16 00:41:29;;;;;;;23.08;17.90;;;;;;;22.84;56.64;100599.72;5208667;28;20789;-53
2022/08/16 00:44:09;;;;;;;22.30;16.75;;;;;;;22.86;56.72;100605.69;5204964;28;20438;-47
2022/08/16 00:47:04;;;;;;;20.67;17.55;;;;;;;22.82;56.65;100602.63;5206607;28;20820;-42
2022/08/16 00:49:37;;;;;;;20.90;16.73;;;;;;;22.69;56.73;100592.94;5204607;28;20847;-50
2022/08/16 00:52:10;;;;;;;24.60;17.13;;;;;;;22.76;56.88;100587.41;5209364;28;20520;-55
2022/08/16 00:54:42;;;;;;;21.57;16.27;;;;;;;22.81;56.81;100606.38;5207993;28;20431;-53
2022/08/16 00:57:15;;;;;;;22.33;17.07;;;;;;;22.82;56.74;100613.41;5208230;28;21166;-53
2022/08/16 01:00:55;;;;;;;19.02;16.55;;;;;;;22.82;56.83;100599.94;5210671;28;20454;-53
2022/08/16 01:03:29;;;;;;;23.25;17.17;;;;;;;22.77;56.80;100608.75;5207758;28;21026;-51
2022/08/16 01:06:03;;;;;;;24.10;17.40;;;;;;;22.78;56.92;100601.47;5205558;28;20467;-51
2022/08/16 01:08:37;;;;;;;22.70;17.17;;;;;;;22.70;56.94;100594.59;5208439;28;20867;-51
2022/08/16 01:11:10;;;;;;;23.33;17.88;;;;;;;22.78;56.65;100604.97;5207043;28;20456;-53
2022/08/16 01:14:26;;;;;;;26.58;18.63;;;;;;;22.81;56.68;100601.00;5216399;28;20953;-52
2022/08/16 01:17:01;;;;;;;25.38;18.70;;;;;;;22.71;56.73;100585.44;5205485;28;20446;-52
2022/08/16 01:19:38;;;;;;;23.65;17.90;;;;;;;22.80;56.76;100599.38;5206408;28;20455;-51
2022/08/16 01:22:18;;;;;;;27.60;19.20;;;;;;;22.79;56.67;100597.72;5205505;28;20501;-49
2022/08/16 01:24:57;;;;;;;25.92;18.70;;;;;;;22.76;56.90;100592.81;5207525;28;20950;-50
2022/08/16 01:27:41;;;;;;;27.98;19.40;;;;;;;22.77;56.62;100595.28;5206969;28;20508;-46
2022/08/16 01:30:17;;;;;;;24.50;19.00;;;;;;;22.78;56.77;100596.91;5207076;28;20752;-54
2022/08/16 01:32:52;;;;;;;24.92;18.38;;;;;;;22.81;56.90;100601.00;5207601;28;20949;-52
2022/08/16 01:35:31;;;;;;;22.98;18.15;;;;;;;22.79;56.79;100606.63;5199216;28;20895;-54
2022/08/16 01:38:19;;;;;;;24.38;18.15;;;;;;;22.80;56.82;100591.28;5203548;28;20898;-49
2022/08/16 01:40:57;;;;;;;23.50;19.15;;;;;;;22.81;56.90;100592.13;5208771;28;20486;-53
2022/08/16 01:43:30;;;;;;;26.88;20.13;;;;;;;22.79;56.96;100577.03;5206710;28;20498;-51
2022/08/16 01:46:19;;;;;;;26.30;20.38;;;;;;;22.78;57.02;100574.56;5203854;28;20460;-53
2022/08/16 01:48:55;;;;;;;25.75;20.15;;;;;;;22.76;56.94;100572.13;5208439;28;21083;-50
2022/08/16 01:51:29;;;;;;;27.67;19.90;;;;;;;22.78;57.01;100574.56;5207374;28;20935;-53
2022/08/16 01:58:10;;;;;;;29.08;20.90;;;;;;;22.71;56.93;100581.94;5215476;28;20813;-52
2022/08/16 02:00:42;;;;;;;24.60;21.05;;;;;;;22.68;57.00;100579.72;5212221;28;20710;-51
2022/08/16 02:03:15;;;;;;;27.13;20.25;;;;;;;22.68;57.21;100590.50;5206378;28;20489;-49
2022/08/16 02:05:47;;;;;;;26.80;19.90;;;;;;;22.43;57.25;100551.19;5208529;28;20424;-52
2022/08/16 02:08:20;;;;;;;27.50;20.38;;;;;;;22.69;57.13;100586.75;5207122;28;20414;-49
2022/08/16 02:10:54;;;;;;;30.45;21.00;;;;;;;22.68;57.33;100590.50;5208677;28;20684;-53
2022/08/16 02:13:27;;;;;;;26.98;21.90;;;;;;;22.67;57.17;100586.16;5205897;28;20860;-50
2022/08/16 02:16:00;;;;;;;31.90;22.27;;;;;;;22.65;57.32;100590.97;5208404;28;20761;-51
2022/08/16 02:18:32;;;;;;;29.27;22.65;;;;;;;22.65;57.34;100585.59;5206271;28;20785;-50
2022/08/16 02:21:06;;;;;;;28.23;22.48;;;;;;;22.61;57.42;100592.47;5203121;28;20424;-51
2022/08/16 02:23:39;;;;;;;36.95;25.30;;;;;;;22.58;57.46;100585.72;5206434;28;20453;-41
2022/08/16 02:26:14;;;;;;;34.83;24.98;;;;;;;22.55;57.64;100587.00;5207491;28;20701;-52
2022/08/16 02:28:47;;;;;;;34.35;26.48;;;;;;;22.50;57.51;100583.38;5205547;28;20894;-53
2022/08/16 02:31:20;;;;;;;32.47;26.05;;;;;;;22.49;57.59;100582.56;5207813;28;20834;-49
2022/08/16 02:33:52;;;;;;;39.05;26.75;;;;;;;22.46;57.65;100566.06;5205237;28;20470;-48
2022/08/16 02:36:24;;;;;;;35.47;27.35;;;;;;;22.47;57.64;100579.25;5209143;28;20401;-55
2022/08/16 02:38:57;;;;;;;36.05;27.50;;;;;;;22.43;58.02;100572.72;5205044;28;20850;-50
2022/08/16 02:41:29;;;;;;;36.55;28.38;;;;;;;22.40;57.84;100575.88;5206751;28;20416;-56
2022/08/16 02:44:04;;;;;;;38.47;29.13;;;;;;;22.39;58.08;100568.88;5204945;28;20396;-49
2022/08/16 02:46:37;;;;;;;37.42;28.88;;;;;;;22.37;58.08;100570.16;5205726;28;20542;-56
2022/08/16 02:49:43;;;;;;;38.47;29.60;;;;;;;22.35;58.06;100565.00;5209032;28;20421;-51
2022/08/16 02:52:16;;;;;;;33.23;28.23;;;;;;;22.34;58.10;100566.06;5206709;28;20452;-52
2022/08/16 02:54:48;;;;;;;36.47;28.60;;;;;;;22.31;58.15;100569.22;5206691;28;20440;-50
2022/08/16 02:57:22;;;;;;;42.92;30.88;;;;;;;22.32;58.17;100570.84;5201914;28;20861;-53
2022/08/16 02:59:55;;;;;;;39.47;29.73;;;;;;;22.30;58.46;100578.34;5203946;28;20732;-51
2022/08/16 03:02:28;;;;;;;40.30;30.20;;;;;;;22.29;58.15;100576.69;5204165;28;20717;-53
2022/08/16 03:05:00;;;;;;;37.75;30.60;;;;;;;22.28;58.40;100569.69;5205480;28;20733;-49
2022/08/16 03:07:32;;;;;;;43.00;33.38;;;;;;;22.27;58.46;100573.44;5203540;28;20479;-52
2022/08/16 03:10:10;;;;;;;46.88;34.63;;;;;;;22.25;58.61;100575.53;5205795;28;20744;-51
2022/08/16 03:12:44;;;;;;;42.60;32.03;;;;;;;22.23;58.69;100577.63;5212532;28;20484;-54
2022/08/16 03:15:19;;;;;;;42.95;33.58;;;;;;;22.23;58.62;100561.47;5206882;28;20489;-55
2022/08/16 03:17:52;;;;;;;46.17;33.15;;;;;;;22.22;58.61;100570.63;5205066;28;20432;-52
2022/08/16 03:20:25;;;;;;;50.42;34.78;;;;;;;22.20;58.68;100567.31;5207005;28;20422;-53
2022/08/16 03:22:57;;;;;;;41.63;32.38;;;;;;;22.17;59.01;100568.59;5210184;28;20665;-57
2022/08/16 03:25:31;;;;;;;40.80;31.40;;;;;;;22.16;59.06;100568.81;5206198;28;20453;-54
2022/08/16 03:28:04;;;;;;;38.30;30.73;;;;;;;22.17;59.06;100565.09;5203891;28;20412;-51
2022/08/16 03:30:38;;;;;;;40.88;32.28;;;;;;;22.14;59.12;100569.03;5206221;28;20770;-52
2022/08/16 03:33:11;;;;;;;39.28;31.90;;;;;;;22.16;59.09;100566.13;5214398;28;20430;-52
2022/08/16 03:35:44;;;;;;;42.55;31.45;;;;;;;22.16;59.13;100563.44;5214347;28;20434;-55
2022/08/16 03:38:18;;;;;;;42.15;31.63;;;;;;;22.16;59.17;100563.44;5210090;28;20723;-50
2022/08/16 03:40:50;;;;;;;43.70;31.27;;;;;;;22.16;59.21;100566.13;5210810;28;20898;-53
2022/08/16 03:44:01;;;;;;;42.80;31.27;;;;;;;22.17;59.24;100574.00;5209987;28;20782;-54
2022/08/16 03:46:36;;;;;;;41.90;31.48;;;;;;;22.12;59.19;100581.94;5208641;28;20708;-51
2022/08/16 03:49:10;;;;;;;41.30;31.13;;;;;;;21.93;59.47;100545.44;5212167;28;20400;-48
2022/08/16 03:51:43;;;;;;;44.25;30.25;;;;;;;22.12;59.33;100576.53;5212134;28;20417;-52
2022/08/16 03:54:16;;;;;;;44.60;31.45;;;;;;;22.09;59.36;100583.19;5211876;28;20820;-50
2022/08/16 03:56:48;;;;;;;43.20;33.15;;;;;;;22.04;59.57;100582.25;5210794;28;20508;-51
2022/08/16 03:59:21;;;;;;;44.88;34.15;;;;;;;22.03;59.55;100577.94;5213538;28;20409;-49
2022/08/16 04:01:54;;;;;;;45.73;34.83;;;;;;;21.98;59.68;100580.50;5212382;28;20401;-53
2022/08/16 04:04:27;;;;;;;45.92;34.20;;;;;;;21.97;59.69;100579.69;5211786;28;20837;-53
2022/08/16 04:06:59;;;;;;;43.97;32.53;;;;;;;21.96;59.65;100578.03;5217091;28;20802;-53
2022/08/16 04:09:32;;;;;;;43.10;31.13;;;;;;;21.97;59.79;100585.06;5212224;28;20413;-53
2022/08/16 04:12:06;;;;;;;44.10;33.38;;;;;;;21.96;59.76;100571.84;5208100;28;20954;-53
2022/08/16 04:14:39;;;;;;;47.50;34.15;;;;;;;21.95;59.88;100576.38;5206901;28;20407;-53
2022/08/16 04:17:14;;;;;;;46.20;32.97;;;;;;;21.93;59.88;100593.81;5210438;28;20419;-54
2022/08/16 04:19:46;;;;;;;46.28;35.17;;;;;;;21.91;60.04;100585.97;5211015;28;20711;-53
2022/08/16 04:22:19;;;;;;;42.35;33.17;;;;;;;21.92;60.02;100592.97;5212835;28;20527;-51
2022/08/16 04:24:51;;;;;;;44.40;35.47;;;;;;;21.87;60.04;100588.31;5210376;28;20439;-50
2022/08/16 04:27:24;;;;;;;48.00;36.83;;;;;;;21.86;60.03;100593.91;5210910;28;20529;-52
2022/08/16 04:29:56;;;;;;;47.65;35.67;;;;;;;21.86;60.07;100593.91;5211593;28;20865;-52
2022/08/16 04:32:30;;;;;;;51.00;37.00;;;;;;;21.86;60.08;100604.66;5211118;28;20900;-48
2022/08/16 04:35:03;;;;;;;52.33;36.93;;;;;;;21.87;60.07;100600.94;5204760;28;20908;-55
2022/08/16 04:37:35;;;;;;;50.65;37.17;;;;;;;21.86;60.04;100607.34;5211970;28;20877;-51
2022/08/16 04:40:09;;;;;;;45.45;36.00;;;;;;;21.81;60.37;100612.59;5217125;28;20750;-52
2022/08/16 04:42:44;;;;;;;50.00;37.03;;;;;;;21.79;60.13;100614.69;5213734;28;20482;-52
2022/08/16 04:45:18;;;;;;;49.70;37.83;;;;;;;21.75;60.25;100613.53;5209148;28;20914;-52
2022/08/16 04:47:51;;;;;;;48.90;38.78;;;;;;;21.77;60.34;100616.78;5208767;28;20874;-49
2022/08/16 04:50:27;;;;;;;50.42;35.88;;;;;;;21.79;60.31;100615.50;5208368;28;20416;-52
2022/08/16 04:52:59;;;;;;;48.00;38.28;;;;;;;21.82;60.29;100614.25;5211550;28;20797;-56
2022/08/16 04:55:32;;;;;;;50.00;36.95;;;;;;;21.82;60.31;100620.44;5209437;28;20407;-39
2022/08/16 04:58:06;;;;;;;48.47;36.17;;;;;;;21.83;60.21;100626.63;5208236;28;20784;-54
2022/08/16 05:00:38;;;;;;;42.70;33.38;;;;;;;21.86;60.13;100631.53;5208531;28;20560;-52
2022/08/16 05:03:17;;;;;;;46.45;34.25;;;;;;;21.89;60.40;100636.47;5207391;28;20886;-50
2022/08/16 05:05:51;;;;;;;45.70;34.28;;;;;;;21.92;60.32;100641.38;5203072;28;20427;-56
2022/08/16 05:08:25;;;;;;;45.28;34.25;;;;;;;21.96;60.19;100637.19;5207820;28;20806;-53
2022/08/16 05:10:59;;;;;;;44.40;31.93;;;;;;;21.96;60.30;100637.19;5209367;28;20479;-52
2022/08/16 05:13:34;;;;;;;40.65;32.42;;;;;;;21.97;60.29;100636.13;5206304;28;20423;-51
2022/08/16 05:16:08;;;;;;;42.67;32.50;;;;;;;22.03;60.03;100643.28;5206727;28;20863;-53
2022/08/16 05:19:55;;;;;;;46.30;32.35;;;;;;;22.08;59.98;100646.13;5211205;28;20524;-52
2022/08/16 05:22:29;;;;;;;42.72;32.75;;;;;;;22.04;59.98;100644.91;5203295;28;25180;-48
2022/08/16 05:25:02;;;;;;;42.25;31.42;;;;;;;22.07;59.98;100639.06;5207085;28;20593;-54
2022/08/16 05:27:35;;;;;;;44.75;31.83;;;;;;;21.97;60.07;100622.69;5206836;28;20719;-53
2022/08/16 05:30:11;;;;;;;41.25;31.20;;;;;;;22.18;59.84;100639.38;5204364;28;20865;-55
2022/08/16 05:32:44;;;;;;;43.67;32.22;;;;;;;22.23;59.86;100639.50;5207241;28;20446;-49
2022/08/16 05:35:17;;;;;;;42.37;31.73;;;;;;;22.25;60.06;100646.28;5210395;28;20768;-52
2022/08/16 05:37:51;;;;;;;45.03;31.98;;;;;;;22.35;59.81;100644.91;5208683;28;20752;-53
2022/08/16 05:40:23;;;;;;;50.45;33.90;;;;;;;22.40;59.74;100642.34;5208212;28;20448;-50
2022/08/16 05:42:56;;;;;;;43.50;32.40;;;;;;;22.47;59.66;100664.56;5204037;28;21832;-50
2022/08/16 05:45:28;;;;;;;44.17;31.05;;;;;;;22.56;59.58;100663.97;5210013;28;20405;-54
2022/08/16 05:48:01;;;;;;;44.50;32.92;;;;;;;22.68;59.41;100665.88;5205371;28;20554;-52
2022/08/16 05:50:34;;;;;;;42.35;32.10;;;;;;;22.76;59.41;100668.19;5204252;28;20785;-52
2022/08/16 05:53:08;;;;;;;43.25;31.25;;;;;;;22.79;59.30;100667.72;5206912;28;20717;-52
2022/08/16 05:55:40;;;;;;;39.72;31.23;;;;;;;22.92;59.23;100672.88;5204001;28;20902;-51
2022/08/16 05:58:13;;;;;;;45.00;30.33;;;;;;;23.48;58.58;100668.69;5205996;28;20500;-52
2022/08/16 06:00:45;;;;;;;42.05;29.63;;;;;;;24.37;57.42;100664.63;5207776;28;20830;-52
2022/08/16 06:03:17;;;;;;;36.87;26.93;;;;;;;25.38;56.24;100661.78;5207847;28;20422;-52
2022/08/16 06:05:50;;;;;;;37.47;26.48;;;;;;;26.27;54.99;100670.56;5207495;28;20772;-53
2022/08/16 06:08:23;;;;;;;39.08;26.13;;;;;;;26.78;54.09;100635.72;5209337;28;20875;-52
2022/08/16 06:10:56;;;;;;;30.10;23.08;;;;;;;27.74;53.11;100672.44;5206686;28;20702;-47
2022/08/16 06:13:38;;;;;;;33.80;23.02;;;;;;;28.28;52.24;100658.44;5212453;28;20872;-53
2022/08/16 06:16:10;;;;;;;32.97;22.27;;;;;;;29.02;51.05;100667.03;5202025;28;22436;-56
2022/08/16 06:18:43;;;;;;;33.42;23.13;;;;;;;29.57;50.12;100678.75;5208750;28;20852;-53
2022/08/16 06:21:16;;;;;;;36.90;23.58;;;;;;;29.86;49.43;100671.53;5205480;28;20931;-51
2022/08/16 06:24:39;;;;;;;32.08;22.17;;;;;;;30.55;48.29;100683.25;5215455;28;21055;-50
2022/08/16 06:27:12;;;;;;;28.70;20.83;;;;;;;31.05;47.66;100679.50;5163900;28;20418;-52
2022/08/16 06:29:45;;;;;;;35.20;21.17;;;;;;;31.52;46.60;100678.66;5165716;28;20747;-51
2022/08/16 06:32:17;;;;;;;32.72;21.38;;;;;;;31.81;46.06;100680.44;5160461;28;20997;-54
2022/08/16 06:34:49;;;;;;;29.40;20.95;;;;;;;32.06;45.51;100693.72;5163379;28;20771;-50
2022/08/16 06:37:22;;;;;;;27.52;21.05;;;;;;;32.17;45.18;100682.63;5166314;28;20502;-54
2022/08/16 06:39:56;;;;;;;31.40;20.25;;;;;;;32.48;44.53;100686.50;5166277;28;20951;-52
2022/08/16 06:42:28;;;;;;;33.47;22.25;;;;;;;32.74;44.08;100686.03;5165091;28;20736;-52
2022/08/16 06:45:01;;;;;;;32.00;22.10;;;;;;;32.92;43.72;100689.78;5165115;28;20773;-53
2022/08/16 06:47:34;;;;;;;33.03;21.38;;;;;;;33.42;42.77;100690.72;5153796;28;20410;-51
2022/08/16 06:50:07;;;;;;;31.33;20.50;;;;;;;34.04;41.79;100692.91;5168325;28;20940;-49
2022/08/16 06:52:40;;;;;;;29.20;20.88;;;;;;;34.65;41.12;100691.34;5167031;28;20438;-49
2022/08/16 06:55:15;;;;;;;25.30;19.25;;;;;;;35.10;40.11;100693.19;5171145;28;20449;-53
2022/08/16 06:57:48;;;;;;;30.00;20.38;;;;;;;35.42;40.04;100688.41;5164222;28;20422;-49
2022/08/16 07:00:21;;;;;;;27.35;19.33;;;;;;;35.76;39.35;100693.16;5165920;28;20735;-50
2022/08/16 07:02:53;;;;;;;24.42;18.33;;;;;;;36.02;38.94;100695.91;5169059;28;20892;-54
2022/08/16 07:05:29;;;;;;;28.70;19.17;;;;;;;36.23;38.70;100698.78;5163558;28;20870;-42
2022/08/16 07:08:03;;;;;;;29.52;19.40;;;;;;;36.52;37.95;100708.31;5165483;28;20772;-51
2022/08/16 07:10:37;;;;;;;27.43;19.87;;;;;;;36.63;37.79;100693.84;5163395;28;20891;-50
2022/08/16 07:13:09;;;;;;;27.90;19.38;;;;;;;36.72;37.67;100709.53;5165393;28;20887;-54
2022/08/16 07:15:45;;;;;;;31.83;19.70;;;;;;;36.76;37.37;100703.03;5162092;28;20421;-51
2022/08/16 07:18:18;;;;;;;28.25;19.98;;;;;;;36.42;37.79;100714.91;5165776;28;20439;-51
2022/08/16 07:20:52;;;;;;;26.63;20.50;;;;;;;36.05;37.95;100706.28;5161512;28;20430;-49
2022/08/16 07:23:25;;;;;;;32.72;20.77;;;;;;;35.84;37.77;100717.06;5177150;28;20740;-49
2022/08/16 07:25:59;;;;;;;25.53;19.03;;;;;;;35.83;38.18;100715.44;5178590;28;20730;-50
2022/08/16 07:28:32;;;;;;;28.13;18.90;;;;;;;35.74;37.83;100711.88;5187149;28;20434;-49
2022/08/16 07:31:04;;;;;;;28.95;20.05;;;;;;;35.84;37.56;100708.03;5181953;28;20413;-47
2022/08/16 07:33:38;;;;;;;24.83;16.85;;;;;;;36.03;37.08;100694.78;5183944;28;20483;-48
2022/08/16 07:36:11;;;;;;;26.67;19.08;;;;;;;36.44;36.88;100704.41;5185435;28;20755;-46
2022/08/16 07:38:44;;;;;;;23.33;16.67;;;;;;;36.56;36.58;100718.31;5184586;28;20421;-53
2022/08/16 07:41:18;;;;;;;24.02;16.63;;;;;;;36.79;36.61;100704.31;5185718;28;20828;-48
2022/08/16 07:43:50;;;;;;;25.17;17.52;;;;;;;36.85;36.21;100705.75;5185314;28;20491;-52
2022/08/16 07:46:23;;;;;;;23.90;15.63;;;;;;;36.76;36.33;100711.28;5180375;28;20799;-48
2022/08/16 07:50:00;;;;;;;30.23;15.70;;;;;;;36.46;36.62;100710.41;5188149;28;20820;-48
2022/08/16 07:52:33;;;;;;;22.38;15.85;;;;;;;36.31;36.75;100708.16;5181827;28;20769;-48
2022/08/16 07:55:07;;;;;;;20.00;14.48;;;;;;;36.33;36.76;100717.72;5186290;28;20518;-50
2022/08/16 07:57:42;;;;;;;24.58;13.93;;;;;;;36.56;36.48;100707.31;5186455;28;20425;-52
2022/08/16 08:00:16;;;;;;;24.38;14.32;;;;;;;36.97;35.97;100708.59;5186503;28;20429;-50
2022/08/16 08:02:49;;;;;;;20.73;14.75;;;;;;;37.26;35.76;100709.78;5189958;28;20502;-51
2022/08/16 08:05:21;;;;;;;25.17;14.68;;;;;;;37.61;35.25;100715.91;5203156;28;20806;-51
2022/08/16 08:07:54;;;;;;;19.42;13.80;;;;;;;37.95;35.16;100712.09;5194689;28;20547;-47
2022/08/16 08:10:27;;;;;;;24.92;13.63;;;;;;;38.31;34.74;100710.59;5191418;28;20846;-47
2022/08/16 08:13:01;;;;;;;21.75;12.98;;;;;;;38.58;34.54;100722.19;5196056;28;20439;-51
2022/08/16 08:15:34;;;;;;;23.88;12.85;;;;;;;38.62;34.47;100723.94;5187920;28;20408;-48
2022/08/16 08:18:06;;;;;;;29.52;11.75;;;;;;;38.63;34.41;100733.81;5202075;28;20863;-51
2022/08/16 08:20:43;;;;;;;19.52;10.98;;;;;;;38.60;34.55;100733.69;5209295;28;20422;-51
2022/08/16 08:23:16;;;;;;;19.08;11.18;;;;;;;38.37;34.64;100734.03;5208631;28;20854;-50
2022/08/16 08:25:50;;;;;;;17.50;10.50;;;;;;;38.32;34.94;100739.81;5206324;28;20969;-49
2022/08/16 08:28:24;;;;;;;21.83;12.45;;;;;;;38.27;34.78;100738.03;5205307;28;20408;-52
2022/08/16 08:30:57;;;;;;;20.23;12.25;;;;;;;37.95;35.29;100742.41;5205351;28;20408;-50
2022/08/16 08:33:30;;;;;;;18.10;10.77;;;;;;;37.59;35.54;100740.22;5202598;28;21127;-49
2022/08/16 08:36:09;;;;;;;14.98;10.02;;;;;;;37.46;35.64;100739.34;5204356;28;20533;-51
2022/08/16 08:38:42;;;;;;;15.80;10.95;;;;;;;37.46;35.57;100747.59;5199800;28;20396;-47
2022/08/16 08:41:15;;;;;;;16.38;10.77;;;;;;;37.38;35.68;100751.19;5201902;28;20415;-48
2022/08/16 08:43:48;;;;;;;19.23;10.68;;;;;;;37.16;35.92;100746.75;5205443;28;20514;-51
2022/08/16 08:46:22;;;;;;;16.55;10.75;;;;;;;36.79;36.12;100742.84;5198334;28;20890;-48
2022/08/16 08:48:55;;;;;;;19.17;11.48;;;;;;;36.54;36.59;100750.84;5201319;28;20780;-49
2022/08/16 08:51:28;;;;;;;21.88;10.50;;;;;;;36.19;36.48;100737.13;5203197;28;21056;-50
2022/08/16 08:54:02;;;;;;;17.90;10.88;;;;;;;36.05;36.79;100763.16;5200575;28;20424;-47
2022/08/16 08:56:36;;;;;;;16.33;10.60;;;;;;;35.91;36.92;100761.38;5200047;28;20741;-45
2022/08/16 08:59:11;;;;;;;18.08;10.95;;;;;;;35.66;36.81;100765.72;5201375;28;20725;-52
2022/08/16 09:01:44;;;;;;;18.05;11.75;;;;;;;35.46;36.88;100760.78;5198350;28;20860;-46
2022/08/16 09:04:17;;;;;;;17.38;10.73;;;;;;;35.24;37.15;100757.00;5200987;28;20425;-48
2022/08/16 09:06:51;;;;;;;17.35;10.02;;;;;;;35.17;36.96;100762.16;5200035;28;20421;-46
2022/08/16 09:09:23;;;;;;;16.02;9.93;;;;;;;34.96;37.41;100763.81;5203357;28;20420;-51
2022/08/16 09:11:57;;;;;;;15.32;9.48;;;;;;;34.82;37.20;100767.47;5203347;28;20427;-47
2022/08/16 09:14:31;;;;;;;19.75;10.23;;;;;;;34.83;37.26;100780.03;5198868;28;20870;-47
2022/08/16 09:17:04;;;;;;;17.98;10.35;;;;;;;34.70;37.58;100780.16;5202744;28;20419;-47
2022/08/16 09:19:37;;;;;;;19.63;10.83;;;;;;;34.64;37.36;100790.44;5203824;28;20480;-46
2022/08/16 09:22:10;;;;;;;15.57;11.30;;;;;;;34.70;37.16;100783.69;5204544;28;20516;-48
2022/08/16 09:24:42;;;;;;;18.80;11.48;;;;;;;34.67;37.48;100784.31;5200308;28;20425;-47
2022/08/16 09:27:15;;;;;;;22.15;10.38;;;;;;;34.66;37.25;100782.72;5202858;28;20516;-51
2022/08/16 09:29:49;;;;;;;17.13;8.27;;;;;;;34.63;36.94;100780.59;5194945;28;20878;-49
2022/08/16 09:32:22;;;;;;;14.55;10.18;;;;;;;34.63;36.86;100783.34;5200647;28;20412;-46
2022/08/16 09:34:54;;;;;;;16.85;10.60;;;;;;;34.42;37.38;100777.50;5203419;28;20420;-49
2022/08/16 09:37:27;;;;;;;14.20;8.60;;;;;;;34.43;37.20;100801.84;5196782;28;20479;-49
2022/08/16 09:40:00;;;;;;;13.77;8.05;;;;;;;34.44;36.79;100789.00;5204483;28;20416;-46
2022/08/16 09:42:33;;;;;;;16.20;8.50;;;;;;;34.58;36.89;100802.66;5201156;28;20404;-47
2022/08/16 09:45:08;;;;;;;13.60;8.95;;;;;;;34.63;37.01;100799.78;5203296;28;20417;-46
2022/08/16 09:47:41;;;;;;;17.65;9.93;;;;;;;34.40;36.84;100799.75;5207347;28;20975;-50
2022/08/16 09:50:14;;;;;;;18.45;9.05;;;;;;;34.02;37.25;100796.53;5203668;28;20412;-48
2022/08/16 09:52:46;;;;;;;12.83;8.73;;;;;;;33.82;37.46;100799.69;5204661;28;20475;-48
2022/08/16 09:55:19;;;;;;;15.82;9.02;;;;;;;33.61;37.77;100802.06;5200825;28;20983;-47
2022/08/16 09:57:51;;;;;;;16.27;8.70;;;;;;;33.56;37.97;100804.91;5207432;28;20818;-48
2022/08/16 10:00:25;;;;;;;16.27;8.05;;;;;;;33.66;37.48;100805.47;5204027;28;20426;-46
2022/08/16 10:02:58;;;;;;;15.60;8.07;;;;;;;33.66;37.56;100799.19;5204668;28;20907;-50
2022/08/16 10:05:31;;;;;;;16.70;8.93;;;;;;;33.58;37.49;100798.00;5207392;28;20419;-49
2022/08/16 10:08:06;;;;;;;16.95;8.80;;;;;;;33.60;37.49;100795.75;5182602;28;20415;-53
2022/08/16 10:10:40;;;;;;;14.03;7.37;;;;;;;33.67;37.47;100800.84;5182812;28;20470;-47
2022/08/16 10:13:11;;;;;;;10.93;7.05;;;;;;;33.66;37.33;100805.47;5181850;28;20855;-47
2022/08/16 10:15:47;;;;;;;13.00;6.80;;;;;;;33.57;37.54;100806.50;5203621;28;20733;-45
2022/08/16 10:18:19;;;;;;;14.25;7.10;;;;;;;33.53;37.28;100813.72;5201861;28;20422;-46
2022/08/16 10:20:52;;;;;;;14.88;7.32;;;;;;;33.56;37.54;100804.91;5205202;28;20515;-47
2022/08/16 10:23:25;;;;;;;15.43;7.85;;;;;;;33.57;37.19;100806.50;5186927;28;20925;-47
2022/08/16 10:25:57;;;;;;;12.38;6.82;;;;;;;33.57;37.34;100812.00;5202239;28;20794;-46
2022/08/16 10:28:30;;;;;;;12.52;6.85;;;;;;;33.54;37.14;100807.94;5196888;28;20438;-49
2022/08/16 10:31:06;;;;;;;15.05;7.10;;;;;;;33.69;37.00;100815.81;5200285;28;20878;-43
2022/08/16 10:33:40;;;;;;;15.50;7.28;;;;;;;33.77;36.99;100805.28;5191493;28;20956;-50
2022/08/16 10:36:13;;;;;;;13.65;7.50;;;;;;;33.85;37.18;100807.28;5181206;28;20442;-44
2022/08/16 10:38:45;;;;;;;12.82;6.80;;;;;;;33.75;37.19;100814.59;5182944;28;20511;-51
2022/08/16 10:41:18;;;;;;;13.75;6.72;;;;;;;33.74;37.26;100817.66;5195215;28;20420;-45
2022/08/16 10:43:51;;;;;;;12.40;6.45;;;;;;;33.82;37.28;100825.19;5195922;28;20900;-46
2022/08/16 10:46:25;;;;;;;10.63;6.50;;;;;;;33.87;37.12;100827.78;5198981;28;20835;-46
2022/08/16 10:48:57;;;;;;;12.97;7.17;;;;;;;33.80;37.10;100824.66;5196323;28;20959;-47
2022/08/16 10:51:31;;;;;;;11.60;5.70;;;;;;;33.78;37.21;100829.63;5200526;28;20426;-48
2022/08/16 10:54:03;;;;;;;12.57;6.50;;;;;;;33.76;36.97;100826.41;5196059;28;20861;-48
2022/08/16 10:56:36;;;;;;;10.47;5.73;;;;;;;33.77;37.21;100828.00;5194086;28;20860;-45
2022/08/16 10:59:08;;;;;;;11.27;5.80;;;;;;;33.82;36.97;100835.28;5199837;28;20421;-46
2022/08/16 11:01:42;;;;;;;11.32;5.95;;;;;;;33.88;36.71;100842.28;5197516;28;20435;-47
2022/08/16 11:04:14;;;;;;;14.57;6.63;;;;;;;33.89;36.93;100835.72;5197852;28;20413;-49
2022/08/16 11:06:46;;;;;;;9.48;5.70;;;;;;;33.93;36.88;100845.72;5200869;28;20404;-47
2022/08/16 11:09:19;;;;;;;10.67;6.30;;;;;;;34.03;36.75;100854.88;5203587;28;20791;-48
2022/08/16 11:11:51;;;;;;;11.77;6.05;;;;;;;34.14;36.66;100854.38;5204423;28;20426;-48
2022/08/16 11:14:24;;;;;;;10.33;6.80;;;;;;;34.22;36.75;100852.81;5201048;28;20416;-50
2022/08/16 11:17:00;;;;;;;14.13;6.63;;;;;;;34.25;36.72;100854.94;5202442;28;20416;-48
2022/08/16 11:19:33;;;;;;;12.48;5.82;;;;;;;34.29;36.73;100861.44;5197959;28;20955;-48
2022/08/16 11:22:05;;;;;;;14.82;5.93;;;;;;;34.32;36.26;100866.31;5199816;28;20874;-48
2022/08/16 11:24:39;;;;;;;9.48;6.10;;;;;;;34.28;36.57;100854.31;5198656;28;20824;-48
2022/08/16 11:27:15;;;;;;;11.63;6.55;;;;;;;34.29;36.50;100866.91;5200591;28;20422;-49
2022/08/16 11:29:48;;;;;;;12.45;6.60;;;;;;;34.34;36.31;100869.53;5194425;28;20432;-48
2022/08/16 11:32:23;;;;;;;13.03;7.00;;;;;;;34.44;36.57;100871.25;5203554;28;20732;-51
2022/08/16 11:34:56;;;;;;;13.50;6.10;;;;;;;34.52;36.16;100875.97;5193980;28;20735;-52
2022/08/16 11:37:28;;;;;;;11.82;6.50;;;;;;;34.39;36.49;100852.97;5202580;28;20752;-47
2022/08/16 11:40:00;;;;;;;9.98;5.78;;;;;;;34.64;36.08;100872.72;5192696;28;20888;-48
2022/08/16 11:42:33;;;;;;;9.43;5.00;;;;;;;34.52;36.21;100858.72;5195720;28;20422;-43
2022/08/16 11:45:06;;;;;;;9.77;5.60;;;;;;;34.69;35.90;100872.59;5196289;28;20440;-47
2022/08/16 11:47:40;;;;;;;11.03;6.00;;;;;;;34.75;36.04;100876.84;5192856;28;20428;-52
2022/08/16 11:50:13;;;;;;;8.70;5.20;;;;;;;34.84;35.61;100874.97;5188457;28;20880;-47